DW0226 Weather Reports


Display with metric or nautical units.
time (UTC)temp
F
wind
direction
speed
MPH
gust
MPH
rain 1hr
in
rain 24hr
in
rain mn
in
humidity
%
barometer
mb
20240612220031 77 59 6.0 13.0 0.00 0.00 0.00 64 1014.4
20240612215022 77 106 6.0 11.0 0.00 0.00 0.00 65 1014.5
20240612214034 78 117 5.0 9.0 0.00 0.00 0.00 64 1014.5
20240612213024 78 130 2.0 8.0 0.00 0.00 0.00 65 1014.6
20240612212033 78 115 6.0 11.0 0.00 0.00 0.00 64 1014.8
20240612211024 79 126 8.0 11.0 0.00 0.00 0.00 62 1014.8
20240612210031 79 94 6.0 11.0 0.00 0.00 0.00 60 1014.9
20240612205046 79 94 7.0 9.0 0.00 0.00 0.00 59 1014.8
20240612204034 79 156 3.0 10.0 0.00 0.00 0.00 60 1014.9
20240612203026 80 97 8.0 10.0 0.00 0.00 0.00 58 1014.8
20240612202033 80 150 2.0 5.0 0.00 0.00 0.00 58 1014.7
20240612201028 80 202 2.0 6.0 0.00 0.00 0.00 56 1014.8
20240612200036 80 145 5.0 8.0 0.00 0.00 0.00 58 1014.8
20240612195026 80 145 1.0 5.0 0.00 0.00 0.00 62 1014.9
20240612194035 79 211 3.0 7.0 0.00 0.00 0.00 61 1015.1
20240612193047 80 155 3.0 5.0 0.00 0.00 0.00 57 1015.2
20240612192034 80 225 4.0 7.0 0.00 0.00 0.00 62 1015.2
20240612191026 79 269 2.0 7.0 0.00 0.00 0.00 64 1015.3
20240612190035 79 275 3.0 6.0 0.00 0.00 0.00 61 1015.3
20240612185029 79 193 3.0 6.0 0.00 0.00 0.00 62 1015.4
20240612024027 61 70 1.0 2.0 0.00 0.91 0.00 88 1014.7
20240612023033 61 70 1.0 2.0 0.00 0.91 0.00 88 1014.5
20240612022028 61 70 0.0 2.0 0.00 0.91 0.00 87 1014.6
20240612021019 61 70 2.0 3.0 0.00 0.91 0.00 86 1014.4
20240612020028 62 58 2.0 3.0 0.00 0.91 0.00 86 1014.5
20240612015018 62 54 0.0 1.0 0.00 0.91 0.00 85 1014.2
20240612014033 63 54 1.0 2.0 0.00 0.91 0.00 84 1014.1
20240612013023 64 302 0.0 1.0 0.00 0.91 0.00 84 1013.8
20240612012033 65 302 0.0 2.0 0.00 0.91 0.00 81 1013.7
20240612011029 66 302 1.0 2.0 0.00 0.91 0.00 79 1013.6
20240612010100 68 302 0.0 1.0 0.00 0.91 0.00 76 1013.4
20240612005029 69 302 0.0 0.0 0.00 0.91 0.00 74 1013.2
20240612004019 71 302 0.0 1.0 0.00 0.91 0.00 72 1013.2
20240612003028 73 302 0.0 0.0 0.00 0.91 0.00 70 1013.2
20240612002022 75 302 0.0 1.0 0.00 0.91 0.00 66 1013.0
20240612001034 76 302 0.0 0.0 0.00 0.91 0.00 65 1013.0
20240612000025 77 302 0.0 1.0 0.00 0.91 0.00 62 1012.8
20240611235055 77 340 0.0 1.0 0.00 0.91 0.00 58 1012.7
20240611234029 77 11 0.0 2.0 0.00 0.91 0.00 61 1012.6
20240611233019 77 307 0.0 1.0 0.00 0.91 0.00 63 1012.6
20240611232028 77 307 0.0 3.0 0.00 0.91 0.00 59 1012.5
20240611231042 78 301 1.0 3.0 0.00 0.91 0.00 57 1012.4
20240611230036 79 5 0.0 2.0 0.00 0.91 0.00 59 1012.3
20240611225023 79 309 0.0 4.0 0.00 0.91 0.00 56 1012.4
20240611224033 79 30 1.0 6.0 0.00 0.91 0.00 58 1012.3
20240611223023 79 310 0.0 3.0 0.00 0.91 0.00 55 1012.3
20240611222056 79 313 0.0 4.0 0.00 0.91 0.00 58 1012.2
20240611221044 77 46 1.0 4.0 0.00 0.91 0.00 61 1012.2
20240611220051 76 300 1.0 3.0 0.00 0.91 0.00 59 1012.2